sensor_id;sensor_type;location;lat;lon;timestamp;P1;durP1;ratioP1;P2;durP2;ratioP2
735;SDS011;352;48.626;9.238;2023-06-22T00:02:26;12.07;;;10.10;;
735;SDS011;352;48.626;9.238;2023-06-22T00:04:53;11.27;;;10.03;;
735;SDS011;352;48.626;9.238;2023-06-22T00:07:19;14.63;;;10.20;;
735;SDS011;352;48.626;9.238;2023-06-22T00:09:47;12.00;;;10.90;;
735;SDS011;352;48.626;9.238;2023-06-22T00:12:14;13.60;;;12.30;;
735;SDS011;352;48.626;9.238;2023-06-22T00:14:41;11.77;;;10.47;;
735;SDS011;352;48.626;9.238;2023-06-22T00:17:07;13.30;;;11.10;;
735;SDS011;352;48.626;9.238;2023-06-22T00:19:34;11.70;;;10.60;;
735;SDS011;352;48.626;9.238;2023-06-22T00:22:01;12.43;;;11.23;;
735;SDS011;352;48.626;9.238;2023-06-22T00:24:28;10.80;;;9.77;;
735;SDS011;352;48.626;9.238;2023-06-22T00:26:56;11.50;;;10.40;;
735;SDS011;352;48.626;9.238;2023-06-22T00:29:23;12.77;;;10.70;;
735;SDS011;352;48.626;9.238;2023-06-22T00:31:49;12.73;;;9.90;;
735;SDS011;352;48.626;9.238;2023-06-22T00:34:16;12.50;;;10.60;;
735;SDS011;352;48.626;9.238;2023-06-22T00:36:43;10.97;;;9.87;;
735;SDS011;352;48.626;9.238;2023-06-22T00:39:09;12.20;;;11.00;;
735;SDS011;352;48.626;9.238;2023-06-22T00:41:36;11.63;;;10.43;;
735;SDS011;352;48.626;9.238;2023-06-22T00:44:05;13.10;;;11.03;;
735;SDS011;352;48.626;9.238;2023-06-22T00:46:31;13.53;;;11.30;;
735;SDS011;352;48.626;9.238;2023-06-22T00:48:58;12.30;;;9.90;;
735;SDS011;352;48.626;9.238;2023-06-22T00:51:25;11.60;;;10.40;;
735;SDS011;352;48.626;9.238;2023-06-22T00:53:52;15.00;;;11.43;;
735;SDS011;352;48.626;9.238;2023-06-22T00:56:19;12.27;;;11.00;;
735;SDS011;352;48.626;9.238;2023-06-22T00:58:49;11.83;;;10.63;;
735;SDS011;352;48.626;9.238;2023-06-22T01:01:19;12.43;;;10.40;;
735;SDS011;352;48.626;9.238;2023-06-22T01:03:48;12.63;;;10.20;;
735;SDS011;352;48.626;9.238;2023-06-22T01:06:16;12.37;;;11.10;;
735;SDS011;352;48.626;9.238;2023-06-22T01:08:53;11.63;;;10.37;;
735;SDS011;352;48.626;9.238;2023-06-22T01:11:31;11.50;;;10.37;;
735;SDS011;352;48.626;9.238;2023-06-22T01:14:04;11.67;;;10.47;;
735;SDS011;352;48.626;9.238;2023-06-22T01:16:39;13.50;;;10.63;;
735;SDS011;352;48.626;9.238;2023-06-22T01:19:09;11.80;;;10.70;;
735;SDS011;352;48.626;9.238;2023-06-22T01:21:50;11.10;;;9.90;;
735;SDS011;352;48.626;9.238;2023-06-22T01:24:22;11.63;;;10.53;;
735;SDS011;352;48.626;9.238;2023-06-22T01:26:54;13.83;;;10.93;;
735;SDS011;352;48.626;9.238;2023-06-22T01:29:27;12.53;;;11.20;;
735;SDS011;352;48.626;9.238;2023-06-22T01:31:56;11.43;;;10.30;;
735;SDS011;352;48.626;9.238;2023-06-22T01:34:24;10.90;;;9.80;;
735;SDS011;352;48.626;9.238;2023-06-22T01:36:51;11.90;;;9.57;;
735;SDS011;352;48.626;9.238;2023-06-22T01:39:19;12.83;;;11.43;;
735;SDS011;352;48.626;9.238;2023-06-22T01:41:47;11.70;;;9.67;;
735;SDS011;352;48.626;9.238;2023-06-22T01:44:14;10.77;;;9.67;;
735;SDS011;352;48.626;9.238;2023-06-22T01:46:43;10.77;;;9.07;;
735;SDS011;352;48.626;9.238;2023-06-22T01:49:10;11.07;;;9.87;;
735;SDS011;352;48.626;9.238;2023-06-22T01:51:38;15.77;;;11.97;;
735;SDS011;352;48.626;9.238;2023-06-22T01:54:05;13.10;;;11.60;;
735;SDS011;352;48.626;9.238;2023-06-22T01:56:34;13.00;;;11.13;;
735;SDS011;352;48.626;9.238;2023-06-22T01:59:02;11.17;;;9.63;;
735;SDS011;352;48.626;9.238;2023-06-22T02:01:35;12.90;;;10.57;;
735;SDS011;352;48.626;9.238;2023-06-22T02:04:11;11.87;;;10.40;;
735;SDS011;352;48.626;9.238;2023-06-22T02:06:44;11.40;;;9.83;;
735;SDS011;352;48.626;9.238;2023-06-22T02:09:14;11.50;;;9.83;;
735;SDS011;352;48.626;9.238;2023-06-22T02:11:43;10.93;;;9.87;;
735;SDS011;352;48.626;9.238;2023-06-22T02:14:12;11.40;;;10.37;;
735;SDS011;352;48.626;9.238;2023-06-22T02:16:40;11.07;;;9.97;;
735;SDS011;352;48.626;9.238;2023-06-22T02:19:07;13.63;;;9.80;;
735;SDS011;352;48.626;9.238;2023-06-22T02:21:35;13.43;;;10.37;;
735;SDS011;352;48.626;9.238;2023-06-22T02:24:03;11.83;;;10.53;;
735;SDS011;352;48.626;9.238;2023-06-22T02:26:30;11.13;;;9.93;;
735;SDS011;352;48.626;9.238;2023-06-22T02:28:59;9.93;;;8.80;;
735;SDS011;352;48.626;9.238;2023-06-22T02:31:26;12.10;;;9.17;;
735;SDS011;352;48.626;9.238;2023-06-22T02:33:55;9.97;;;8.90;;
735;SDS011;352;48.626;9.238;2023-06-22T02:36:23;13.00;;;9.90;;
735;SDS011;352;48.626;9.238;2023-06-22T02:38:52;11.07;;;9.17;;
735;SDS011;352;48.626;9.238;2023-06-22T02:41:19;10.60;;;9.57;;
735;SDS011;352;48.626;9.238;2023-06-22T02:43:46;11.13;;;9.83;;
735;SDS011;352;48.626;9.238;2023-06-22T02:46:13;14.00;;;10.07;;
735;SDS011;352;48.626;9.238;2023-06-22T02:48:40;11.03;;;9.93;;
735;SDS011;352;48.626;9.238;2023-06-22T02:51:07;13.10;;;10.40;;
735;SDS011;352;48.626;9.238;2023-06-22T02:53:35;11.10;;;10.00;;
735;SDS011;352;48.626;9.238;2023-06-22T02:56:02;10.97;;;9.87;;
735;SDS011;352;48.626;9.238;2023-06-22T02:58:30;12.23;;;9.20;;
735;SDS011;352;48.626;9.238;2023-06-22T03:00:58;10.73;;;9.63;;
735;SDS011;352;48.626;9.238;2023-06-22T03:03:29;13.10;;;10.70;;
735;SDS011;352;48.626;9.238;2023-06-22T03:05:56;12.10;;;10.37;;
735;SDS011;352;48.626;9.238;2023-06-22T03:08:23;12.37;;;10.13;;
735;SDS011;352;48.626;9.238;2023-06-22T03:10:51;10.70;;;9.50;;
735;SDS011;352;48.626;9.238;2023-06-22T03:13:17;10.67;;;9.57;;
735;SDS011;352;48.626;9.238;2023-06-22T03:15:44;9.40;;;8.50;;
735;SDS011;352;48.626;9.238;2023-06-22T03:18:11;11.03;;;9.93;;
735;SDS011;352;48.626;9.238;2023-06-22T03:20:38;10.50;;;9.60;;
735;SDS011;352;48.626;9.238;2023-06-22T03:23:04;10.70;;;9.70;;
735;SDS011;352;48.626;9.238;2023-06-22T03:25:31;10.90;;;9.90;;
735;SDS011;352;48.626;9.238;2023-06-22T03:28:00;10.73;;;9.80;;
735;SDS011;352;48.626;9.238;2023-06-22T03:30:26;11.40;;;10.30;;
735;SDS011;352;48.626;9.238;2023-06-22T03:32:53;11.83;;;10.60;;
735;SDS011;352;48.626;9.238;2023-06-22T03:35:20;14.03;;;10.50;;
735;SDS011;352;48.626;9.238;2023-06-22T03:37:46;11.60;;;10.40;;
735;SDS011;352;48.626;9.238;2023-06-22T03:40:13;11.37;;;10.20;;
735;SDS011;352;48.626;9.238;2023-06-22T03:42:40;12.50;;;11.40;;
735;SDS011;352;48.626;9.238;2023-06-22T03:45:08;17.37;;;11.63;;
735;SDS011;352;48.626;9.238;2023-06-22T03:47:36;13.00;;;11.77;;
735;SDS011;352;48.626;9.238;2023-06-22T03:50:03;12.10;;;10.90;;
735;SDS011;352;48.626;9.238;2023-06-22T03:52:31;13.03;;;11.67;;
735;SDS011;352;48.626;9.238;2023-06-22T03:54:57;12.00;;;10.80;;
735;SDS011;352;48.626;9.238;2023-06-22T03:57:24;15.37;;;11.33;;
735;SDS011;352;48.626;9.238;2023-06-22T03:59:51;13.50;;;11.33;;
735;SDS011;352;48.626;9.238;2023-06-22T04:02:19;14.10;;;11.30;;
735;SDS011;352;48.626;9.238;2023-06-22T04:04:46;12.00;;;10.57;;
735;SDS011;352;48.626;9.238;2023-06-22T04:07:13;11.60;;;10.40;;
735;SDS011;352;48.626;9.238;2023-06-22T04:09:39;14.20;;;11.13;;
735;SDS011;352;48.626;9.238;2023-06-22T04:12:07;11.43;;;10.30;;
735;SDS011;352;48.626;9.238;2023-06-22T04:14:34;16.57;;;12.03;;
735;SDS011;352;48.626;9.238;2023-06-22T04:17:00;13.53;;;11.37;;
735;SDS011;352;48.626;9.238;2023-06-22T04:19:28;12.70;;;11.40;;
735;SDS011;352;48.626;9.238;2023-06-22T04:21:55;12.30;;;10.30;;
735;SDS011;352;48.626;9.238;2023-06-22T04:24:22;13.23;;;10.27;;
735;SDS011;352;48.626;9.238;2023-06-22T04:26:49;10.77;;;9.27;;
735;SDS011;352;48.626;9.238;2023-06-22T04:29:19;10.63;;;8.90;;
735;SDS011;352;48.626;9.238;2023-06-22T04:31:53;9.93;;;8.93;;
735;SDS011;352;48.626;9.238;2023-06-22T04:34:22;14.03;;;10.00;;
735;SDS011;352;48.626;9.238;2023-06-22T04:36:52;10.17;;;9.17;;
735;SDS011;352;48.626;9.238;2023-06-22T04:39:19;10.90;;;9.90;;
735;SDS011;352;48.626;9.238;2023-06-22T04:41:46;12.10;;;10.70;;
735;SDS011;352;48.626;9.238;2023-06-22T04:44:13;10.90;;;9.77;;
735;SDS011;352;48.626;9.238;2023-06-22T04:46:48;12.17;;;9.93;;
735;SDS011;352;48.626;9.238;2023-06-22T04:49:18;12.17;;;10.53;;
735;SDS011;352;48.626;9.238;2023-06-22T04:51:46;12.37;;;9.20;;
735;SDS011;352;48.626;9.238;2023-06-22T04:54:15;11.23;;;9.97;;
735;SDS011;352;48.626;9.238;2023-06-22T04:56:41;10.50;;;9.43;;
735;SDS011;352;48.626;9.238;2023-06-22T04:59:08;10.60;;;8.93;;
735;SDS011;352;48.626;9.238;2023-06-22T05:01:38;13.40;;;9.30;;
735;SDS011;352;48.626;9.238;2023-06-22T05:04:04;10.93;;;8.63;;
735;SDS011;352;48.626;9.238;2023-06-22T05:06:31;10.83;;;9.30;;
735;SDS011;352;48.626;9.238;2023-06-22T05:08:58;9.73;;;8.57;;
735;SDS011;352;48.626;9.238;2023-06-22T05:11:26;10.93;;;9.37;;
735;SDS011;352;48.626;9.238;2023-06-22T05:13:54;10.87;;;8.60;;
735;SDS011;352;48.626;9.238;2023-06-22T05:16:22;10.20;;;9.30;;
735;SDS011;352;48.626;9.238;2023-06-22T05:18:52;9.23;;;8.33;;
735;SDS011;352;48.626;9.238;2023-06-22T05:21:24;11.17;;;10.00;;
735;SDS011;352;48.626;9.238;2023-06-22T05:23:52;9.57;;;8.57;;
735;SDS011;352;48.626;9.238;2023-06-22T05:26:19;10.77;;;8.60;;
735;SDS011;352;48.626;9.238;2023-06-22T05:28:48;9.57;;;8.40;;
735;SDS011;352;48.626;9.238;2023-06-22T05:31:15;9.03;;;7.90;;
735;SDS011;352;48.626;9.238;2023-06-22T05:33:43;8.67;;;7.80;;
735;SDS011;352;48.626;9.238;2023-06-22T05:36:10;8.90;;;8.00;;
735;SDS011;352;48.626;9.238;2023-06-22T05:38:38;11.23;;;9.20;;
735;SDS011;352;48.626;9.238;2023-06-22T05:41:06;10.40;;;8.97;;
735;SDS011;352;48.626;9.238;2023-06-22T05:43:33;10.73;;;8.47;;
735;SDS011;352;48.626;9.238;2023-06-22T05:46:01;9.87;;;7.80;;
735;SDS011;352;48.626;9.238;2023-06-22T05:48:30;8.73;;;7.83;;
735;SDS011;352;48.626;9.238;2023-06-22T05:50:57;8.97;;;7.47;;
735;SDS011;352;48.626;9.238;2023-06-22T05:53:24;9.17;;;8.37;;
735;SDS011;352;48.626;9.238;2023-06-22T05:55:51;7.93;;;7.33;;
735;SDS011;352;48.626;9.238;2023-06-22T05:58:17;9.30;;;8.50;;
735;SDS011;352;48.626;9.238;2023-06-22T06:00:44;8.33;;;7.43;;
735;SDS011;352;48.626;9.238;2023-06-22T06:03:12;8.77;;;7.50;;
735;SDS011;352;48.626;9.238;2023-06-22T06:05:42;8.57;;;7.77;;
735;SDS011;352;48.626;9.238;2023-06-22T06:08:10;11.67;;;7.77;;
735;SDS011;352;48.626;9.238;2023-06-22T06:10:37;10.97;;;7.97;;
735;SDS011;352;48.626;9.238;2023-06-22T06:13:04;8.53;;;7.07;;
735;SDS011;352;48.626;9.238;2023-06-22T06:15:31;7.87;;;7.17;;
735;SDS011;352;48.626;9.238;2023-06-22T06:17:58;9.23;;;8.07;;
735;SDS011;352;48.626;9.238;2023-06-22T06:20:26;10.10;;;8.07;;
735;SDS011;352;48.626;9.238;2023-06-22T06:22:53;9.43;;;8.43;;
735;SDS011;352;48.626;9.238;2023-06-22T06:25:21;8.80;;;8.00;;
735;SDS011;352;48.626;9.238;2023-06-22T06:27:48;8.43;;;7.63;;
735;SDS011;352;48.626;9.238;2023-06-22T06:30:16;9.20;;;7.80;;
735;SDS011;352;48.626;9.238;2023-06-22T06:32:44;8.20;;;7.40;;
735;SDS011;352;48.626;9.238;2023-06-22T06:35:12;8.33;;;7.60;;
735;SDS011;352;48.626;9.238;2023-06-22T06:37:42;9.60;;;8.60;;
735;SDS011;352;48.626;9.238;2023-06-22T06:40:10;8.07;;;7.33;;
735;SDS011;352;48.626;9.238;2023-06-22T06:42:37;9.27;;;8.37;;
735;SDS011;352;48.626;9.238;2023-06-22T06:45:06;8.17;;;7.37;;
735;SDS011;352;48.626;9.238;2023-06-22T06:47:34;7.97;;;7.27;;
735;SDS011;352;48.626;9.238;2023-06-22T06:50:00;12.20;;;8.17;;
735;SDS011;352;48.626;9.238;2023-06-22T06:52:27;9.10;;;8.30;;
735;SDS011;352;48.626;9.238;2023-06-22T06:54:55;13.00;;;8.50;;
735;SDS011;352;48.626;9.238;2023-06-22T06:57:22;8.13;;;7.40;;
735;SDS011;352;48.626;9.238;2023-06-22T06:59:48;8.67;;;7.20;;
735;SDS011;352;48.626;9.238;2023-06-22T07:02:15;7.47;;;6.87;;
735;SDS011;352;48.626;9.238;2023-06-22T07:04:42;8.60;;;7.80;;
735;SDS011;352;48.626;9.238;2023-06-22T07:07:09;8.07;;;7.43;;
735;SDS011;352;48.626;9.238;2023-06-22T07:09:36;8.27;;;7.57;;
735;SDS011;352;48.626;9.238;2023-06-22T07:12:05;7.63;;;6.93;;
735;SDS011;352;48.626;9.238;2023-06-22T07:14:32;8.10;;;7.27;;
735;SDS011;352;48.626;9.238;2023-06-22T07:16:59;8.13;;;7.43;;
735;SDS011;352;48.626;9.238;2023-06-22T07:19:26;7.97;;;7.27;;
735;SDS011;352;48.626;9.238;2023-06-22T07:21:53;7.60;;;7.00;;
735;SDS011;352;48.626;9.238;2023-06-22T07:24:20;7.70;;;6.93;;
735;SDS011;352;48.626;9.238;2023-06-22T07:26:47;9.40;;;7.20;;
735;SDS011;352;48.626;9.238;2023-06-22T07:29:16;7.33;;;6.73;;
735;SDS011;352;48.626;9.238;2023-06-22T07:31:43;8.80;;;6.27;;
735;SDS011;352;48.626;9.238;2023-06-22T07:34:10;7.10;;;6.60;;
735;SDS011;352;48.626;9.238;2023-06-22T07:36:37;9.00;;;7.20;;
735;SDS011;352;48.626;9.238;2023-06-22T07:39:04;7.93;;;7.23;;
735;SDS011;352;48.626;9.238;2023-06-22T07:41:32;7.73;;;7.03;;
735;SDS011;352;48.626;9.238;2023-06-22T07:43:59;12.77;;;7.40;;
735;SDS011;352;48.626;9.238;2023-06-22T07:46:27;9.10;;;7.37;;
735;SDS011;352;48.626;9.238;2023-06-22T07:48:55;9.57;;;7.10;;
735;SDS011;352;48.626;9.238;2023-06-22T07:51:21;8.67;;;7.80;;
735;SDS011;352;48.626;9.238;2023-06-22T07:53:49;9.80;;;9.00;;
735;SDS011;352;48.626;9.238;2023-06-22T07:56:16;11.20;;;7.90;;
735;SDS011;352;48.626;9.238;2023-06-22T07:58:44;8.10;;;7.50;;
735;SDS011;352;48.626;9.238;2023-06-22T08:01:11;9.77;;;8.80;;
735;SDS011;352;48.626;9.238;2023-06-22T08:03:39;8.87;;;8.03;;
735;SDS011;352;48.626;9.238;2023-06-22T08:06:06;8.40;;;7.63;;
735;SDS011;352;48.626;9.238;2023-06-22T08:08:34;8.70;;;7.80;;
735;SDS011;352;48.626;9.238;2023-06-22T08:11:00;9.37;;;8.00;;
735;SDS011;352;48.626;9.238;2023-06-22T08:13:27;9.67;;;8.67;;
735;SDS011;352;48.626;9.238;2023-06-22T08:15:54;10.33;;;8.40;;
735;SDS011;352;48.626;9.238;2023-06-22T08:18:21;8.80;;;8.00;;
735;SDS011;352;48.626;9.238;2023-06-22T08:20:49;8.57;;;7.77;;
735;SDS011;352;48.626;9.238;2023-06-22T08:23:16;9.30;;;8.50;;
735;SDS011;352;48.626;9.238;2023-06-22T08:25:43;8.37;;;7.40;;
735;SDS011;352;48.626;9.238;2023-06-22T08:28:09;9.23;;;7.50;;
735;SDS011;352;48.626;9.238;2023-06-22T08:30:36;10.40;;;7.97;;
735;SDS011;352;48.626;9.238;2023-06-22T08:33:03;8.53;;;7.73;;
735;SDS011;352;48.626;9.238;2023-06-22T08:35:30;11.00;;;7.60;;
735;SDS011;352;48.626;9.238;2023-06-22T08:37:58;9.93;;;8.17;;
735;SDS011;352;48.626;9.238;2023-06-22T08:40:25;8.80;;;8.00;;
735;SDS011;352;48.626;9.238;2023-06-22T08:42:52;8.63;;;7.70;;
735;SDS011;352;48.626;9.238;2023-06-22T08:45:19;9.80;;;7.43;;
735;SDS011;352;48.626;9.238;2023-06-22T08:47:45;13.47;;;8.23;;
735;SDS011;352;48.626;9.238;2023-06-22T08:50:12;10.13;;;8.30;;
735;SDS011;352;48.626;9.238;2023-06-22T08:52:39;8.50;;;7.80;;
735;SDS011;352;48.626;9.238;2023-06-22T08:55:09;8.17;;;7.57;;
735;SDS011;352;48.626;9.238;2023-06-22T08:57:36;8.83;;;8.07;;
735;SDS011;352;48.626;9.238;2023-06-22T09:00:04;9.40;;;8.50;;
735;SDS011;352;48.626;9.238;2023-06-22T09:02:40;9.33;;;8.70;;
735;SDS011;352;48.626;9.238;2023-06-22T09:05:07;10.07;;;9.10;;
735;SDS011;352;48.626;9.238;2023-06-22T09:07:34;13.90;;;8.77;;
735;SDS011;352;48.626;9.238;2023-06-22T09:10:01;10.40;;;9.57;;
735;SDS011;352;48.626;9.238;2023-06-22T09:12:30;10.87;;;9.43;;
735;SDS011;352;48.626;9.238;2023-06-22T09:14:57;9.57;;;8.60;;
735;SDS011;352;48.626;9.238;2023-06-22T09:17:25;11.73;;;9.13;;
735;SDS011;352;48.626;9.238;2023-06-22T09:19:52;8.40;;;7.60;;
735;SDS011;352;48.626;9.238;2023-06-22T09:22:19;11.30;;;8.70;;
735;SDS011;352;48.626;9.238;2023-06-22T09:24:46;13.03;;;10.03;;
735;SDS011;352;48.626;9.238;2023-06-22T09:27:13;9.10;;;8.23;;
735;SDS011;352;48.626;9.238;2023-06-22T09:29:41;9.30;;;8.57;;
735;SDS011;352;48.626;9.238;2023-06-22T09:32:07;10.20;;;9.30;;
735;SDS011;352;48.626;9.238;2023-06-22T09:34:34;9.77;;;8.87;;
735;SDS011;352;48.626;9.238;2023-06-22T09:37:01;9.50;;;8.10;;
735;SDS011;352;48.626;9.238;2023-06-22T09:39:28;13.17;;;9.50;;
735;SDS011;352;48.626;9.238;2023-06-22T09:41:54;9.63;;;8.70;;
735;SDS011;352;48.626;9.238;2023-06-22T09:44:21;15.70;;;14.30;;
735;SDS011;352;48.626;9.238;2023-06-22T09:46:49;11.07;;;10.17;;
735;SDS011;352;48.626;9.238;2023-06-22T09:49:16;17.10;;;15.37;;
735;SDS011;352;48.626;9.238;2023-06-22T09:51:42;10.00;;;8.83;;
735;SDS011;352;48.626;9.238;2023-06-22T09:54:09;9.60;;;8.53;;
735;SDS011;352;48.626;9.238;2023-06-22T09:56:36;9.00;;;8.10;;
735;SDS011;352;48.626;9.238;2023-06-22T09:59:03;9.30;;;8.60;;
735;SDS011;352;48.626;9.238;2023-06-22T10:01:29;10.43;;;8.30;;
735;SDS011;352;48.626;9.238;2023-06-22T10:03:57;11.77;;;9.17;;
735;SDS011;352;48.626;9.238;2023-06-22T10:06:24;8.97;;;8.23;;
735;SDS011;352;48.626;9.238;2023-06-22T10:08:51;9.17;;;8.27;;
735;SDS011;352;48.626;9.238;2023-06-22T10:11:18;9.83;;;9.00;;
735;SDS011;352;48.626;9.238;2023-06-22T10:13:44;9.30;;;8.50;;
735;SDS011;352;48.626;9.238;2023-06-22T10:16:11;9.53;;;8.63;;
735;SDS011;352;48.626;9.238;2023-06-22T10:18:38;10.67;;;9.57;;
735;SDS011;352;48.626;9.238;2023-06-22T10:21:06;11.97;;;8.87;;
735;SDS011;352;48.626;9.238;2023-06-22T10:23:32;11.40;;;8.90;;
735;SDS011;352;48.626;9.238;2023-06-22T10:25:59;13.63;;;8.60;;
735;SDS011;352;48.626;9.238;2023-06-22T10:28:26;12.50;;;8.80;;
735;SDS011;352;48.626;9.238;2023-06-22T10:30:53;10.60;;;9.43;;
735;SDS011;352;48.626;9.238;2023-06-22T10:33:19;9.93;;;8.70;;
735;SDS011;352;48.626;9.238;2023-06-22T10:35:46;10.80;;;9.27;;
735;SDS011;352;48.626;9.238;2023-06-22T10:38:15;9.90;;;7.90;;
735;SDS011;352;48.626;9.238;2023-06-22T10:40:41;10.43;;;9.33;;
735;SDS011;352;48.626;9.238;2023-06-22T10:43:13;10.57;;;9.00;;
735;SDS011;352;48.626;9.238;2023-06-22T10:45:45;13.30;;;9.20;;
735;SDS011;352;48.626;9.238;2023-06-22T10:48:12;11.07;;;9.10;;
735;SDS011;352;48.626;9.238;2023-06-22T10:50:39;12.70;;;9.30;;
735;SDS011;352;48.626;9.238;2023-06-22T10:53:06;14.43;;;8.50;;
735;SDS011;352;48.626;9.238;2023-06-22T10:55:34;10.07;;;8.93;;
735;SDS011;352;48.626;9.238;2023-06-22T10:58:00;12.20;;;9.83;;
735;SDS011;352;48.626;9.238;2023-06-22T11:00:27;9.63;;;8.63;;
735;SDS011;352;48.626;9.238;2023-06-22T11:02:54;10.17;;;9.17;;
735;SDS011;352;48.626;9.238;2023-06-22T11:05:21;9.70;;;8.80;;
735;SDS011;352;48.626;9.238;2023-06-22T11:07:48;16.10;;;9.67;;
735;SDS011;352;48.626;9.238;2023-06-22T11:10:15;8.63;;;7.93;;
735;SDS011;352;48.626;9.238;2023-06-22T11:12:43;11.47;;;8.90;;
735;SDS011;352;48.626;9.238;2023-06-22T11:15:10;10.07;;;9.03;;
735;SDS011;352;48.626;9.238;2023-06-22T11:17:37;11.07;;;10.03;;
735;SDS011;352;48.626;9.238;2023-06-22T11:20:04;10.80;;;9.57;;
735;SDS011;352;48.626;9.238;2023-06-22T11:22:35;10.33;;;9.30;;
735;SDS011;352;48.626;9.238;2023-06-22T11:25:03;11.13;;;9.90;;
735;SDS011;352;48.626;9.238;2023-06-22T11:27:30;10.10;;;9.10;;
735;SDS011;352;48.626;9.238;2023-06-22T11:29:58;10.20;;;9.30;;
735;SDS011;352;48.626;9.238;2023-06-22T11:32:25;9.87;;;8.33;;
735;SDS011;352;48.626;9.238;2023-06-22T11:34:52;12.77;;;9.30;;
735;SDS011;352;48.626;9.238;2023-06-22T11:37:19;10.53;;;8.47;;
735;SDS011;352;48.626;9.238;2023-06-22T11:39:45;11.13;;;9.23;;
735;SDS011;352;48.626;9.238;2023-06-22T11:42:12;9.73;;;8.50;;
735;SDS011;352;48.626;9.238;2023-06-22T11:44:39;9.50;;;8.47;;
735;SDS011;352;48.626;9.238;2023-06-22T11:47:07;12.73;;;10.20;;
735;SDS011;352;48.626;9.238;2023-06-22T11:49:34;9.70;;;8.70;;
735;SDS011;352;48.626;9.238;2023-06-22T11:52:00;11.20;;;10.40;;
735;SDS011;352;48.626;9.238;2023-06-22T11:54:27;13.20;;;9.20;;
735;SDS011;352;48.626;9.238;2023-06-22T11:56:54;10.73;;;9.30;;
735;SDS011;352;48.626;9.238;2023-06-22T11:59:21;10.60;;;9.50;;
735;SDS011;352;48.626;9.238;2023-06-22T12:01:47;10.33;;;9.30;;
735;SDS011;352;48.626;9.238;2023-06-22T12:04:17;14.77;;;9.67;;
735;SDS011;352;48.626;9.238;2023-06-22T12:06:44;11.23;;;8.70;;
735;SDS011;352;48.626;9.238;2023-06-22T12:09:10;12.37;;;8.87;;
735;SDS011;352;48.626;9.238;2023-06-22T12:11:38;10.07;;;9.00;;
735;SDS011;352;48.626;9.238;2023-06-22T12:14:05;10.73;;;8.20;;
735;SDS011;352;48.626;9.238;2023-06-22T12:16:32;9.87;;;8.07;;
735;SDS011;352;48.626;9.238;2023-06-22T12:18:59;10.83;;;8.77;;
735;SDS011;352;48.626;9.238;2023-06-22T12:21:27;13.23;;;8.30;;
735;SDS011;352;48.626;9.238;2023-06-22T12:23:54;10.97;;;8.80;;
735;SDS011;352;48.626;9.238;2023-06-22T12:26:21;10.60;;;8.17;;
735;SDS011;352;48.626;9.238;2023-06-22T12:28:47;13.37;;;7.90;;
735;SDS011;352;48.626;9.238;2023-06-22T12:31:14;12.90;;;8.83;;
735;SDS011;352;48.626;9.238;2023-06-22T12:33:41;13.17;;;8.43;;
735;SDS011;352;48.626;9.238;2023-06-22T12:36:07;11.13;;;9.13;;
735;SDS011;352;48.626;9.238;2023-06-22T12:38:35;11.60;;;8.43;;
735;SDS011;352;48.626;9.238;2023-06-22T12:41:02;13.63;;;10.00;;
735;SDS011;352;48.626;9.238;2023-06-22T12:43:29;14.23;;;8.20;;
735;SDS011;352;48.626;9.238;2023-06-22T12:45:56;9.57;;;8.20;;
735;SDS011;352;48.626;9.238;2023-06-22T12:48:22;10.90;;;8.20;;
735;SDS011;352;48.626;9.238;2023-06-22T12:50:50;10.40;;;8.10;;
735;SDS011;352;48.626;9.238;2023-06-22T12:53:16;10.20;;;8.10;;
735;SDS011;352;48.626;9.238;2023-06-22T12:55:45;10.03;;;9.00;;
735;SDS011;352;48.626;9.238;2023-06-22T12:58:12;11.03;;;8.37;;
735;SDS011;352;48.626;9.238;2023-06-22T13:00:38;11.53;;;8.30;;
735;SDS011;352;48.626;9.238;2023-06-22T13:03:05;9.47;;;7.90;;
735;SDS011;352;48.626;9.238;2023-06-22T13:05:32;12.10;;;8.17;;
735;SDS011;352;48.626;9.238;2023-06-22T13:07:59;11.80;;;8.57;;
735;SDS011;352;48.626;9.238;2023-06-22T13:10:26;10.93;;;8.33;;
735;SDS011;352;48.626;9.238;2023-06-22T13:12:54;9.60;;;8.53;;
735;SDS011;352;48.626;9.238;2023-06-22T13:15:25;9.93;;;8.87;;
735;SDS011;352;48.626;9.238;2023-06-22T13:17:52;9.80;;;7.43;;
735;SDS011;352;48.626;9.238;2023-06-22T13:20:19;10.90;;;8.37;;
735;SDS011;352;48.626;9.238;2023-06-22T13:22:46;9.93;;;8.23;;
735;SDS011;352;48.626;9.238;2023-06-22T13:25:12;9.87;;;7.80;;
735;SDS011;352;48.626;9.238;2023-06-22T13:27:44;11.27;;;8.10;;
735;SDS011;352;48.626;9.238;2023-06-22T13:30:12;10.50;;;8.70;;
735;SDS011;352;48.626;9.238;2023-06-22T13:32:39;9.37;;;8.20;;
735;SDS011;352;48.626;9.238;2023-06-22T13:35:07;10.53;;;8.70;;
735;SDS011;352;48.626;9.238;2023-06-22T13:37:34;9.13;;;8.33;;
735;SDS011;352;48.626;9.238;2023-06-22T13:40:01;9.63;;;8.63;;
735;SDS011;352;48.626;9.238;2023-06-22T13:42:30;10.23;;;8.40;;
735;SDS011;352;48.626;9.238;2023-06-22T13:44:57;11.93;;;8.90;;
735;SDS011;352;48.626;9.238;2023-06-22T13:47:25;10.47;;;9.40;;
735;SDS011;352;48.626;9.238;2023-06-22T13:49:52;13.27;;;8.57;;
735;SDS011;352;48.626;9.238;2023-06-22T13:52:18;9.63;;;8.33;;
735;SDS011;352;48.626;9.238;2023-06-22T13:54:45;9.07;;;8.27;;
735;SDS011;352;48.626;9.238;2023-06-22T13:57:11;12.47;;;7.87;;
735;SDS011;352;48.626;9.238;2023-06-22T13:59:38;10.10;;;8.23;;
735;SDS011;352;48.626;9.238;2023-06-22T14:02:05;10.03;;;9.00;;
735;SDS011;352;48.626;9.238;2023-06-22T14:04:33;11.67;;;9.73;;
735;SDS011;352;48.626;9.238;2023-06-22T14:07:00;14.27;;;7.97;;
735;SDS011;352;48.626;9.238;2023-06-22T14:09:27;10.83;;;8.23;;
735;SDS011;352;48.626;9.238;2023-06-22T14:11:54;10.30;;;8.40;;
735;SDS011;352;48.626;9.238;2023-06-22T14:14:21;11.30;;;9.20;;
735;SDS011;352;48.626;9.238;2023-06-22T14:16:48;10.10;;;8.20;;
735;SDS011;352;48.626;9.238;2023-06-22T14:19:16;9.20;;;8.40;;
735;SDS011;352;48.626;9.238;2023-06-22T14:21:44;10.93;;;8.30;;
735;SDS011;352;48.626;9.238;2023-06-22T14:24:11;10.10;;;8.50;;
735;SDS011;352;48.626;9.238;2023-06-22T14:26:38;9.90;;;8.40;;
735;SDS011;352;48.626;9.238;2023-06-22T14:29:04;15.43;;;9.50;;
735;SDS011;352;48.626;9.238;2023-06-22T14:31:31;9.93;;;8.03;;
735;SDS011;352;48.626;9.238;2023-06-22T14:33:58;9.97;;;8.97;;
735;SDS011;352;48.626;9.238;2023-06-22T14:36:27;12.50;;;9.00;;
735;SDS011;352;48.626;9.238;2023-06-22T14:38:55;10.57;;;9.30;;
735;SDS011;352;48.626;9.238;2023-06-22T14:41:22;9.40;;;8.30;;
735;SDS011;352;48.626;9.238;2023-06-22T14:43:49;11.53;;;9.37;;
735;SDS011;352;48.626;9.238;2023-06-22T14:46:17;13.13;;;8.43;;
735;SDS011;352;48.626;9.238;2023-06-22T14:48:45;9.57;;;8.57;;
735;SDS011;352;48.626;9.238;2023-06-22T14:51:12;11.03;;;8.97;;
735;SDS011;352;48.626;9.238;2023-06-22T14:53:39;14.77;;;9.03;;
735;SDS011;352;48.626;9.238;2023-06-22T14:56:07;10.90;;;8.13;;
735;SDS011;352;48.626;9.238;2023-06-22T14:58:34;11.60;;;8.83;;
735;SDS011;352;48.626;9.238;2023-06-22T15:01:01;10.17;;;8.43;;
735;SDS011;352;48.626;9.238;2023-06-22T15:03:29;10.83;;;8.80;;
735;SDS011;352;48.626;9.238;2023-06-22T15:05:57;9.47;;;8.00;;
735;SDS011;352;48.626;9.238;2023-06-22T15:08:24;11.53;;;7.60;;
735;SDS011;352;48.626;9.238;2023-06-22T15:10:51;8.83;;;7.60;;
735;SDS011;352;48.626;9.238;2023-06-22T15:13:20;7.90;;;7.13;;
735;SDS011;352;48.626;9.238;2023-06-22T15:15:47;8.03;;;6.30;;
735;SDS011;352;48.626;9.238;2023-06-22T15:18:14;8.17;;;6.67;;
735;SDS011;352;48.626;9.238;2023-06-22T15:20:42;8.13;;;7.27;;
735;SDS011;352;48.626;9.238;2023-06-22T15:23:10;11.63;;;7.40;;
735;SDS011;352;48.626;9.238;2023-06-22T15:25:38;6.90;;;5.97;;
735;SDS011;352;48.626;9.238;2023-06-22T15:28:04;7.83;;;6.10;;
735;SDS011;352;48.626;9.238;2023-06-22T15:30:32;7.47;;;5.83;;
735;SDS011;352;48.626;9.238;2023-06-22T15:32:59;11.03;;;6.90;;
735;SDS011;352;48.626;9.238;2023-06-22T15:35:26;9.83;;;6.37;;